sensor_id;sensor_type;location;lat;lon;timestamp;temperature;humidity
17152;DHT22;8691;50.828;4.700;2023-09-19T00:02:03;15.60;99.90
17152;DHT22;8691;50.828;4.700;2023-09-19T00:04:33;15.50;99.90
17152;DHT22;8691;50.828;4.700;2023-09-19T00:07:00;15.40;99.90
17152;DHT22;8691;50.828;4.700;2023-09-19T00:09:26;15.40;99.90
17152;DHT22;8691;50.828;4.700;2023-09-19T00:11:53;15.40;99.90
17152;DHT22;8691;50.828;4.700;2023-09-19T00:14:20;15.50;99.90
17152;DHT22;8691;50.828;4.700;2023-09-19T00:16:47;15.60;99.90
17152;DHT22;8691;50.828;4.700;2023-09-19T00:19:14;15.50;99.90
17152;DHT22;8691;50.828;4.700;2023-09-19T00:21:40;15.50;99.90
17152;DHT22;8691;50.828;4.700;2023-09-19T00:24:07;15.50;99.90
17152;DHT22;8691;50.828;4.700;2023-09-19T00:26:34;15.50;99.90
17152;DHT22;8691;50.828;4.700;2023-09-19T00:29:01;15.40;99.90
17152;DHT22;8691;50.828;4.700;2023-09-19T00:31:28;15.40;99.90
17152;DHT22;8691;50.828;4.700;2023-09-19T00:33:55;15.40;99.90
17152;DHT22;8691;50.828;4.700;2023-09-19T00:36:22;15.40;99.90
17152;DHT22;8691;50.828;4.700;2023-09-19T00:38:49;15.40;99.90
17152;DHT22;8691;50.828;4.700;2023-09-19T00:41:15;15.30;99.90
17152;DHT22;8691;50.828;4.700;2023-09-19T00:43:42;15.30;99.90
17152;DHT22;8691;50.828;4.700;2023-09-19T00:46:09;15.30;99.90
17152;DHT22;8691;50.828;4.700;2023-09-19T00:48:39;15.20;99.90
17152;DHT22;8691;50.828;4.700;2023-09-19T00:51:04;15.20;99.90
17152;DHT22;8691;50.828;4.700;2023-09-19T00:53:31;15.20;99.90
17152;DHT22;8691;50.828;4.700;2023-09-19T00:55:58;15.30;99.90
17152;DHT22;8691;50.828;4.700;2023-09-19T00:58:26;15.20;99.90
17152;DHT22;8691;50.828;4.700;2023-09-19T01:00:53;15.20;99.90
17152;DHT22;8691;50.828;4.700;2023-09-19T01:03:20;15.20;99.90
17152;DHT22;8691;50.828;4.700;2023-09-19T01:05:46;15.20;99.90
17152;DHT22;8691;50.828;4.700;2023-09-19T01:08:14;15.20;99.90
17152;DHT22;8691;50.828;4.700;2023-09-19T01:10:44;15.20;99.90
17152;DHT22;8691;50.828;4.700;2023-09-19T01:13:26;15.10;99.90
17152;DHT22;8691;50.828;4.700;2023-09-19T01:16:41;15.00;99.90
17152;DHT22;8691;50.828;4.700;2023-09-19T01:18:47;15.00;99.90
17152;DHT22;8691;50.828;4.700;2023-09-19T01:29:33;15.00;99.90
17152;DHT22;8691;50.828;4.700;2023-09-19T01:32:03;15.00;99.90
17152;DHT22;8691;50.828;4.700;2023-09-19T01:34:44;14.90;99.90
17152;DHT22;8691;50.828;4.700;2023-09-19T01:37:11;14.90;99.90
17152;DHT22;8691;50.828;4.700;2023-09-19T01:39:38;14.80;99.90
17152;DHT22;8691;50.828;4.700;2023-09-19T01:42:12;14.80;99.90
17152;DHT22;8691;50.828;4.700;2023-09-19T01:47:31;14.80;99.90
17152;DHT22;8691;50.828;4.700;2023-09-19T01:50:02;14.80;99.90
17152;DHT22;8691;50.828;4.700;2023-09-19T01:52:28;14.70;99.90
17152;DHT22;8691;50.828;4.700;2023-09-19T01:54:54;14.80;99.90
17152;DHT22;8691;50.828;4.700;2023-09-19T01:57:27;14.80;99.90
17152;DHT22;8691;50.828;4.700;2023-09-19T02:00:03;14.80;99.90
17152;DHT22;8691;50.828;4.700;2023-09-19T02:02:20;14.80;99.90
17152;DHT22;8691;50.828;4.700;2023-09-19T02:04:47;14.80;99.90
17152;DHT22;8691;50.828;4.700;2023-09-19T02:07:14;14.70;99.90
17152;DHT22;8691;50.828;4.700;2023-09-19T02:09:40;14.70;99.90
17152;DHT22;8691;50.828;4.700;2023-09-19T02:12:08;14.70;99.90
17152;DHT22;8691;50.828;4.700;2023-09-19T02:14:34;14.70;99.90
17152;DHT22;8691;50.828;4.700;2023-09-19T02:17:02;14.70;99.90
17152;DHT22;8691;50.828;4.700;2023-09-19T02:19:28;14.70;99.90
17152;DHT22;8691;50.828;4.700;2023-09-19T02:21:56;14.70;99.90
17152;DHT22;8691;50.828;4.700;2023-09-19T02:24:23;14.70;99.90
17152;DHT22;8691;50.828;4.700;2023-09-19T02:26:49;14.70;99.90
17152;DHT22;8691;50.828;4.700;2023-09-19T02:29:16;14.70;99.90
17152;DHT22;8691;50.828;4.700;2023-09-19T02:31:43;14.70;99.90
17152;DHT22;8691;50.828;4.700;2023-09-19T02:34:11;14.60;99.90
17152;DHT22;8691;50.828;4.700;2023-09-19T02:36:37;14.60;99.90
17152;DHT22;8691;50.828;4.700;2023-09-19T02:39:05;14.60;99.90
17152;DHT22;8691;50.828;4.700;2023-09-19T02:41:31;14.70;99.90
17152;DHT22;8691;50.828;4.700;2023-09-19T02:43:58;14.70;99.90
17152;DHT22;8691;50.828;4.700;2023-09-19T02:46:25;14.70;99.90
17152;DHT22;8691;50.828;4.700;2023-09-19T02:48:52;14.70;99.90
17152;DHT22;8691;50.828;4.700;2023-09-19T02:51:19;14.70;99.90
17152;DHT22;8691;50.828;4.700;2023-09-19T02:53:46;14.60;99.90
17152;DHT22;8691;50.828;4.700;2023-09-19T02:56:13;14.70;99.90
17152;DHT22;8691;50.828;4.700;2023-09-19T02:58:40;14.70;99.90
17152;DHT22;8691;50.828;4.700;2023-09-19T03:01:10;14.80;99.90
17152;DHT22;8691;50.828;4.700;2023-09-19T03:03:37;14.80;99.90
17152;DHT22;8691;50.828;4.700;2023-09-19T03:06:05;15.00;99.90
17152;DHT22;8691;50.828;4.700;2023-09-19T03:08:31;15.10;99.90
17152;DHT22;8691;50.828;4.700;2023-09-19T03:10:59;15.20;99.90
17152;DHT22;8691;50.828;4.700;2023-09-19T03:13:27;15.20;99.90
17152;DHT22;8691;50.828;4.700;2023-09-19T03:15:54;15.20;99.90
17152;DHT22;8691;50.828;4.700;2023-09-19T03:18:21;15.20;99.90
17152;DHT22;8691;50.828;4.700;2023-09-19T03:20:54;15.30;99.90
17152;DHT22;8691;50.828;4.700;2023-09-19T03:23:20;15.30;99.90
17152;DHT22;8691;50.828;4.700;2023-09-19T03:25:47;15.30;99.90
17152;DHT22;8691;50.828;4.700;2023-09-19T03:28:14;15.30;99.90
17152;DHT22;8691;50.828;4.700;2023-09-19T03:30:41;15.20;99.90
17152;DHT22;8691;50.828;4.700;2023-09-19T03:33:07;15.20;99.90
17152;DHT22;8691;50.828;4.700;2023-09-19T03:35:34;15.20;99.90
17152;DHT22;8691;50.828;4.700;2023-09-19T03:38:01;15.30;99.90
17152;DHT22;8691;50.828;4.700;2023-09-19T03:40:28;15.30;99.90
17152;DHT22;8691;50.828;4.700;2023-09-19T03:42:55;15.30;99.90
17152;DHT22;8691;50.828;4.700;2023-09-19T03:45:21;15.30;99.90
17152;DHT22;8691;50.828;4.700;2023-09-19T03:47:48;15.30;99.90
17152;DHT22;8691;50.828;4.700;2023-09-19T03:50:15;15.20;99.90
17152;DHT22;8691;50.828;4.700;2023-09-19T03:52:42;15.20;99.90
17152;DHT22;8691;50.828;4.700;2023-09-19T03:55:09;15.20;99.90
17152;DHT22;8691;50.828;4.700;2023-09-19T03:57:37;15.20;99.90
17152;DHT22;8691;50.828;4.700;2023-09-19T04:00:04;15.20;99.90
17152;DHT22;8691;50.828;4.700;2023-09-19T04:02:33;15.20;99.90
17152;DHT22;8691;50.828;4.700;2023-09-19T04:05:00;15.20;99.90
17152;DHT22;8691;50.828;4.700;2023-09-19T04:07:27;15.10;99.90
17152;DHT22;8691;50.828;4.700;2023-09-19T04:09:54;14.90;99.90
17152;DHT22;8691;50.828;4.700;2023-09-19T04:12:21;14.80;99.90
17152;DHT22;8691;50.828;4.700;2023-09-19T04:14:47;14.70;99.90
17152;DHT22;8691;50.828;4.700;2023-09-19T04:17:14;14.60;99.90
17152;DHT22;8691;50.828;4.700;2023-09-19T04:19:41;14.60;99.90
17152;DHT22;8691;50.828;4.700;2023-09-19T04:22:08;14.50;99.90
17152;DHT22;8691;50.828;4.700;2023-09-19T04:24:35;14.50;99.90
17152;DHT22;8691;50.828;4.700;2023-09-19T04:27:02;14.50;99.90
17152;DHT22;8691;50.828;4.700;2023-09-19T04:29:29;14.50;99.90
17152;DHT22;8691;50.828;4.700;2023-09-19T04:31:56;14.40;99.90
17152;DHT22;8691;50.828;4.700;2023-09-19T04:34:26;14.40;99.90
17152;DHT22;8691;50.828;4.700;2023-09-19T04:36:53;14.40;99.90
17152;DHT22;8691;50.828;4.700;2023-09-19T04:39:19;14.40;99.90
17152;DHT22;8691;50.828;4.700;2023-09-19T04:41:47;14.50;99.90
17152;DHT22;8691;50.828;4.700;2023-09-19T04:44:13;14.50;99.90
17152;DHT22;8691;50.828;4.700;2023-09-19T04:46:41;14.50;99.90
17152;DHT22;8691;50.828;4.700;2023-09-19T04:49:07;14.60;99.90
17152;DHT22;8691;50.828;4.700;2023-09-19T04:51:34;14.50;99.90
17152;DHT22;8691;50.828;4.700;2023-09-19T04:54:01;14.50;99.90
17152;DHT22;8691;50.828;4.700;2023-09-19T04:56:28;14.50;99.90
17152;DHT22;8691;50.828;4.700;2023-09-19T04:58:57;14.40;99.90
17152;DHT22;8691;50.828;4.700;2023-09-19T05:01:24;14.40;99.90
17152;DHT22;8691;50.828;4.700;2023-09-19T05:03:51;14.40;99.90
17152;DHT22;8691;50.828;4.700;2023-09-19T05:06:21;14.40;99.90
17152;DHT22;8691;50.828;4.700;2023-09-19T05:08:51;14.30;99.90
17152;DHT22;8691;50.828;4.700;2023-09-19T05:11:18;14.30;99.90
17152;DHT22;8691;50.828;4.700;2023-09-19T05:13:44;14.30;99.90
17152;DHT22;8691;50.828;4.700;2023-09-19T05:16:11;14.30;99.90
17152;DHT22;8691;50.828;4.700;2023-09-19T05:18:39;14.30;99.90
17152;DHT22;8691;50.828;4.700;2023-09-19T05:21:06;14.20;99.90
17152;DHT22;8691;50.828;4.700;2023-09-19T05:23:33;14.20;99.90
17152;DHT22;8691;50.828;4.700;2023-09-19T05:25:59;14.20;99.90
17152;DHT22;8691;50.828;4.700;2023-09-19T05:28:26;14.20;99.90
17152;DHT22;8691;50.828;4.700;2023-09-19T05:30:53;14.20;99.90
17152;DHT22;8691;50.828;4.700;2023-09-19T05:33:20;14.20;99.90
17152;DHT22;8691;50.828;4.700;2023-09-19T05:35:49;14.20;99.90
17152;DHT22;8691;50.828;4.700;2023-09-19T05:38:16;14.20;99.90
17152;DHT22;8691;50.828;4.700;2023-09-19T05:40:43;14.30;99.90
17152;DHT22;8691;50.828;4.700;2023-09-19T05:43:10;14.30;99.90
17152;DHT22;8691;50.828;4.700;2023-09-19T05:45:37;14.40;99.90
17152;DHT22;8691;50.828;4.700;2023-09-19T05:48:07;14.40;99.90
17152;DHT22;8691;50.828;4.700;2023-09-19T05:50:33;14.50;99.90
17152;DHT22;8691;50.828;4.700;2023-09-19T05:53:00;14.50;99.90
17152;DHT22;8691;50.828;4.700;2023-09-19T05:55:27;14.50;99.90
17152;DHT22;8691;50.828;4.700;2023-09-19T05:57:54;14.60;99.90
17152;DHT22;8691;50.828;4.700;2023-09-19T06:00:21;14.70;99.90
17152;DHT22;8691;50.828;4.700;2023-09-19T06:02:53;14.70;99.90
17152;DHT22;8691;50.828;4.700;2023-09-19T06:05:20;14.80;99.90
17152;DHT22;8691;50.828;4.700;2023-09-19T06:07:47;14.90;99.90
17152;DHT22;8691;50.828;4.700;2023-09-19T06:10:15;15.00;99.90
17152;DHT22;8691;50.828;4.700;2023-09-19T06:12:44;15.00;99.90
17152;DHT22;8691;50.828;4.700;2023-09-19T06:15:12;15.10;99.90
17152;DHT22;8691;50.828;4.700;2023-09-19T06:17:47;15.30;99.90
17152;DHT22;8691;50.828;4.700;2023-09-19T06:20:13;15.40;99.90
17152;DHT22;8691;50.828;4.700;2023-09-19T06:22:41;15.50;99.90
17152;DHT22;8691;50.828;4.700;2023-09-19T06:25:07;15.70;99.90
17152;DHT22;8691;50.828;4.700;2023-09-19T06:27:35;16.00;99.90
17152;DHT22;8691;50.828;4.700;2023-09-19T06:30:02;16.00;99.90
17152;DHT22;8691;50.828;4.700;2023-09-19T06:32:29;16.20;99.90
17152;DHT22;8691;50.828;4.700;2023-09-19T06:34:56;16.30;99.90
17152;DHT22;8691;50.828;4.700;2023-09-19T06:37:23;16.30;99.90
17152;DHT22;8691;50.828;4.700;2023-09-19T06:39:50;16.30;99.90
17152;DHT22;8691;50.828;4.700;2023-09-19T06:42:17;16.50;99.90
17152;DHT22;8691;50.828;4.700;2023-09-19T06:44:45;16.60;99.90
17152;DHT22;8691;50.828;4.700;2023-09-19T06:47:12;16.60;99.90
17152;DHT22;8691;50.828;4.700;2023-09-19T06:49:38;16.70;99.90
17152;DHT22;8691;50.828;4.700;2023-09-19T06:52:05;16.80;99.90
17152;DHT22;8691;50.828;4.700;2023-09-19T06:54:32;16.90;99.90
17152;DHT22;8691;50.828;4.700;2023-09-19T06:56:59;17.00;99.90
17152;DHT22;8691;50.828;4.700;2023-09-19T06:59:27;17.10;99.90
17152;DHT22;8691;50.828;4.700;2023-09-19T07:01:54;17.10;99.90
17152;DHT22;8691;50.828;4.700;2023-09-19T07:04:22;17.30;99.90
17152;DHT22;8691;50.828;4.700;2023-09-19T07:06:52;17.20;99.90
17152;DHT22;8691;50.828;4.700;2023-09-19T07:09:18;17.40;99.90
17152;DHT22;8691;50.828;4.700;2023-09-19T07:11:45;17.60;99.90
17152;DHT22;8691;50.828;4.700;2023-09-19T07:14:13;17.80;99.90
17152;DHT22;8691;50.828;4.700;2023-09-19T07:16:40;18.10;99.90
17152;DHT22;8691;50.828;4.700;2023-09-19T07:19:07;18.00;99.90
17152;DHT22;8691;50.828;4.700;2023-09-19T07:21:34;18.30;99.90
17152;DHT22;8691;50.828;4.700;2023-09-19T07:24:00;18.50;99.90
17152;DHT22;8691;50.828;4.700;2023-09-19T07:26:28;19.20;99.90
17152;DHT22;8691;50.828;4.700;2023-09-19T07:28:56;19.40;99.90
17152;DHT22;8691;50.828;4.700;2023-09-19T07:31:23;19.40;99.90
17152;DHT22;8691;50.828;4.700;2023-09-19T07:33:50;19.80;99.90
17152;DHT22;8691;50.828;4.700;2023-09-19T07:36:16;20.30;99.90
17152;DHT22;8691;50.828;4.700;2023-09-19T07:38:43;20.60;99.90
17152;DHT22;8691;50.828;4.700;2023-09-19T07:41:10;21.00;99.90
17152;DHT22;8691;50.828;4.700;2023-09-19T07:43:37;21.40;99.90
17152;DHT22;8691;50.828;4.700;2023-09-19T07:46:07;21.40;99.90
17152;DHT22;8691;50.828;4.700;2023-09-19T07:48:37;21.60;99.90
17152;DHT22;8691;50.828;4.700;2023-09-19T07:51:04;22.20;99.90
17152;DHT22;8691;50.828;4.700;2023-09-19T07:53:31;22.30;99.90
17152;DHT22;8691;50.828;4.700;2023-09-19T07:56:07;22.30;99.90
17152;DHT22;8691;50.828;4.700;2023-09-19T07:58:34;22.30;99.90
17152;DHT22;8691;50.828;4.700;2023-09-19T08:01:04;22.00;99.90
17152;DHT22;8691;50.828;4.700;2023-09-19T08:03:30;22.20;99.90
17152;DHT22;8691;50.828;4.700;2023-09-19T08:05:57;22.10;99.90
17152;DHT22;8691;50.828;4.700;2023-09-19T08:08:24;22.50;99.90
17152;DHT22;8691;50.828;4.700;2023-09-19T08:10:54;22.70;99.90
17152;DHT22;8691;50.828;4.700;2023-09-19T08:13:22;22.80;99.90
17152;DHT22;8691;50.828;4.700;2023-09-19T08:15:48;22.90;99.90
17152;DHT22;8691;50.828;4.700;2023-09-19T08:18:15;22.90;99.90
17152;DHT22;8691;50.828;4.700;2023-09-19T08:20:42;22.90;99.90
17152;DHT22;8691;50.828;4.700;2023-09-19T08:23:11;23.30;99.90
17152;DHT22;8691;50.828;4.700;2023-09-19T08:25:38;23.50;99.90
17152;DHT22;8691;50.828;4.700;2023-09-19T08:28:06;23.70;99.40
17152;DHT22;8691;50.828;4.700;2023-09-19T08:30:33;23.50;99.40
17152;DHT22;8691;50.828;4.700;2023-09-19T08:33:01;23.60;99.20
17152;DHT22;8691;50.828;4.700;2023-09-19T08:35:28;23.50;99.20
17152;DHT22;8691;50.828;4.700;2023-09-19T08:37:55;23.50;99.20
17152;DHT22;8691;50.828;4.700;2023-09-19T08:40:21;23.70;99.00
17152;DHT22;8691;50.828;4.700;2023-09-19T08:42:52;23.60;99.10
17152;DHT22;8691;50.828;4.700;2023-09-19T08:45:18;23.70;99.00
17152;DHT22;8691;50.828;4.700;2023-09-19T08:47:46;23.60;98.80
17152;DHT22;8691;50.828;4.700;2023-09-19T08:50:19;23.60;98.80
17152;DHT22;8691;50.828;4.700;2023-09-19T08:52:42;23.50;99.30
17152;DHT22;8691;50.828;4.700;2023-09-19T08:55:12;23.70;98.30
17152;DHT22;8691;50.828;4.700;2023-09-19T08:57:38;23.60;98.50
17152;DHT22;8691;50.828;4.700;2023-09-19T09:00:08;23.50;98.30
17152;DHT22;8691;50.828;4.700;2023-09-19T09:02:38;23.70;99.10
17152;DHT22;8691;50.828;4.700;2023-09-19T09:05:05;24.10;97.80
17152;DHT22;8691;50.828;4.700;2023-09-19T09:07:32;24.40;98.00
17152;DHT22;8691;50.828;4.700;2023-09-19T09:09:59;24.60;97.70
17152;DHT22;8691;50.828;4.700;2023-09-19T09:12:26;25.10;95.80
17152;DHT22;8691;50.828;4.700;2023-09-19T09:14:53;24.90;96.10
17152;DHT22;8691;50.828;4.700;2023-09-19T09:17:19;24.60;95.90
17152;DHT22;8691;50.828;4.700;2023-09-19T09:19:46;24.50;96.70
17152;DHT22;8691;50.828;4.700;2023-09-19T09:22:13;24.40;95.20
17152;DHT22;8691;50.828;4.700;2023-09-19T09:24:56;24.20;95.40
17152;DHT22;8691;50.828;4.700;2023-09-19T09:27:25;24.20;95.40
17152;DHT22;8691;50.828;4.700;2023-09-19T09:29:52;24.20;96.30
17152;DHT22;8691;50.828;4.700;2023-09-19T09:32:19;24.40;96.70
17152;DHT22;8691;50.828;4.700;2023-09-19T09:34:47;24.60;95.50
17152;DHT22;8691;50.828;4.700;2023-09-19T09:37:16;24.50;95.90
17152;DHT22;8691;50.828;4.700;2023-09-19T09:39:39;24.50;96.00
17152;DHT22;8691;50.828;4.700;2023-09-19T09:42:06;24.70;96.10
17152;DHT22;8691;50.828;4.700;2023-09-19T09:44:33;24.60;95.60
17152;DHT22;8691;50.828;4.700;2023-09-19T09:47:00;24.20;96.40
17152;DHT22;8691;50.828;4.700;2023-09-19T09:49:27;24.30;96.40
17152;DHT22;8691;50.828;4.700;2023-09-19T09:52:04;24.00;96.30
17152;DHT22;8691;50.828;4.700;2023-09-19T09:55:02;23.60;97.60
17152;DHT22;8691;50.828;4.700;2023-09-19T09:57:28;23.60;97.60
17152;DHT22;8691;50.828;4.700;2023-09-19T09:59:55;23.50;97.10
17152;DHT22;8691;50.828;4.700;2023-09-19T10:02:25;22.90;97.10
17152;DHT22;8691;50.828;4.700;2023-09-19T10:04:51;22.50;98.20
17152;DHT22;8691;50.828;4.700;2023-09-19T10:07:28;22.60;98.00
17152;DHT22;8691;50.828;4.700;2023-09-19T10:09:51;22.50;98.20
17152;DHT22;8691;50.828;4.700;2023-09-19T10:12:17;22.40;99.20
17152;DHT22;8691;50.828;4.700;2023-09-19T10:14:44;22.40;98.60
17152;DHT22;8691;50.828;4.700;2023-09-19T10:17:12;22.20;99.40
17152;DHT22;8691;50.828;4.700;2023-09-19T10:19:46;22.50;99.20
17152;DHT22;8691;50.828;4.700;2023-09-19T10:22:12;22.50;99.20
17152;DHT22;8691;50.828;4.700;2023-09-19T10:24:38;22.90;98.20
17152;DHT22;8691;50.828;4.700;2023-09-19T10:27:06;23.10;98.20
17152;DHT22;8691;50.828;4.700;2023-09-19T10:29:32;23.30;97.70
17152;DHT22;8691;50.828;4.700;2023-09-19T10:31:59;23.20;97.10
17152;DHT22;8691;50.828;4.700;2023-09-19T10:34:25;23.30;97.20
17152;DHT22;8691;50.828;4.700;2023-09-19T10:36:52;23.40;97.70
17152;DHT22;8691;50.828;4.700;2023-09-19T10:39:19;23.70;96.70
17152;DHT22;8691;50.828;4.700;2023-09-19T10:41:53;23.80;96.40
17152;DHT22;8691;50.828;4.700;2023-09-19T10:44:25;23.70;96.70
17152;DHT22;8691;50.828;4.700;2023-09-19T10:46:54;23.40;96.50
17152;DHT22;8691;50.828;4.700;2023-09-19T10:49:21;22.90;97.50
17152;DHT22;8691;50.828;4.700;2023-09-19T10:51:49;22.70;98.00
17152;DHT22;8691;50.828;4.700;2023-09-19T10:54:15;22.80;98.60
17152;DHT22;8691;50.828;4.700;2023-09-19T10:56:46;22.90;98.80
17152;DHT22;8691;50.828;4.700;2023-09-19T10:59:11;23.00;98.60
17152;DHT22;8691;50.828;4.700;2023-09-19T11:01:44;23.00;98.80
17152;DHT22;8691;50.828;4.700;2023-09-19T11:07:10;22.70;98.80
17152;DHT22;8691;50.828;4.700;2023-09-19T11:09:55;22.60;98.50
17152;DHT22;8691;50.828;4.700;2023-09-19T11:14:57;22.20;99.60
17152;DHT22;8691;50.828;4.700;2023-09-19T11:17:30;22.40;99.70
17152;DHT22;8691;50.828;4.700;2023-09-19T11:30:36;22.70;99.20
17152;DHT22;8691;50.828;4.700;2023-09-19T11:33:20;22.70;99.20
17152;DHT22;8691;50.828;4.700;2023-09-19T11:36:14;22.70;98.90
17152;DHT22;8691;50.828;4.700;2023-09-19T11:46:23;23.00;98.70
17152;DHT22;8691;50.828;4.700;2023-09-19T11:48:54;22.90;98.20
17152;DHT22;8691;50.828;4.700;2023-09-19T11:51:20;22.70;99.00
17152;DHT22;8691;50.828;4.700;2023-09-19T11:53:50;22.80;98.80
17152;DHT22;8691;50.828;4.700;2023-09-19T11:56:17;22.80;98.80
17152;DHT22;8691;50.828;4.700;2023-09-19T11:58:44;22.70;98.50
17152;DHT22;8691;50.828;4.700;2023-09-19T12:01:12;22.60;98.90
17152;DHT22;8691;50.828;4.700;2023-09-19T12:03:37;22.70;99.40
17152;DHT22;8691;50.828;4.700;2023-09-19T12:06:10;23.10;98.60
17152;DHT22;8691;50.828;4.700;2023-09-19T12:08:31;23.10;98.60
17152;DHT22;8691;50.828;4.700;2023-09-19T12:10:58;23.40;98.50
17152;DHT22;8691;50.828;4.700;2023-09-19T12:13:25;23.30;97.20
17152;DHT22;8691;50.828;4.700;2023-09-19T12:15:52;23.10;97.80
17152;DHT22;8691;50.828;4.700;2023-09-19T12:18:28;22.90;98.50
17152;DHT22;8691;50.828;4.700;2023-09-19T12:20:54;22.80;98.30
17152;DHT22;8691;50.828;4.700;2023-09-19T12:23:22;22.50;99.40
17152;DHT22;8691;50.828;4.700;2023-09-19T12:25:49;22.50;99.40
17152;DHT22;8691;50.828;4.700;2023-09-19T12:28:16;22.70;99.20
17152;DHT22;8691;50.828;4.700;2023-09-19T12:30:46;22.70;99.20
17152;DHT22;8691;50.828;4.700;2023-09-19T12:33:18;22.60;98.90
17152;DHT22;8691;50.828;4.700;2023-09-19T12:35:45;22.50;99.50
17152;DHT22;8691;50.828;4.700;2023-09-19T12:38:21;22.20;99.40
17152;DHT22;8691;50.828;4.700;2023-09-19T12:40:39;22.10;99.90
17152;DHT22;8691;50.828;4.700;2023-09-19T12:43:06;22.00;99.90
17152;DHT22;8691;50.828;4.700;2023-09-19T12:45:32;21.80;99.90
17152;DHT22;8691;50.828;4.700;2023-09-19T12:48:23;21.80;99.90
17152;DHT22;8691;50.828;4.700;2023-09-19T12:51:05;21.50;99.90
17152;DHT22;8691;50.828;4.700;2023-09-19T12:53:35;21.40;99.90
17152;DHT22;8691;50.828;4.700;2023-09-19T12:56:02;21.40;99.90
17152;DHT22;8691;50.828;4.700;2023-09-19T12:58:29;21.50;99.90
17152;DHT22;8691;50.828;4.700;2023-09-19T13:00:56;21.50;99.90
17152;DHT22;8691;50.828;4.700;2023-09-19T13:05:53;22.00;99.90
17152;DHT22;8691;50.828;4.700;2023-09-19T13:08:20;22.20;99.90
17152;DHT22;8691;50.828;4.700;2023-09-19T13:11:14;22.30;99.90
17152;DHT22;8691;50.828;4.700;2023-09-19T13:16:25;22.30;99.90
17152;DHT22;8691;50.828;4.700;2023-09-19T13:18:53;22.40;99.90
17152;DHT22;8691;50.828;4.700;2023-09-19T13:21:34;22.50;99.90
17152;DHT22;8691;50.828;4.700;2023-09-19T13:24:22;22.60;99.90
17152;DHT22;8691;50.828;4.700;2023-09-19T13:26:49;22.60;99.90
17152;DHT22;8691;50.828;4.700;2023-09-19T13:29:15;22.50;99.90
17152;DHT22;8691;50.828;4.700;2023-09-19T13:31:42;22.50;99.90
17152;DHT22;8691;50.828;4.700;2023-09-19T13:34:09;22.50;99.90
17152;DHT22;8691;50.828;4.700;2023-09-19T13:36:36;22.70;99.90
17152;DHT22;8691;50.828;4.700;2023-09-19T13:39:02;22.80;99.90
17152;DHT22;8691;50.828;4.700;2023-09-19T13:41:29;22.70;99.90
17152;DHT22;8691;50.828;4.700;2023-09-19T13:43:57;22.50;99.90
17152;DHT22;8691;50.828;4.700;2023-09-19T13:46:24;22.50;99.90
17152;DHT22;8691;50.828;4.700;2023-09-19T13:48:51;22.30;99.90
17152;DHT22;8691;50.828;4.700;2023-09-19T13:51:17;22.40;99.90
17152;DHT22;8691;50.828;4.700;2023-09-19T13:53:44;22.60;99.90
17152;DHT22;8691;50.828;4.700;2023-09-19T13:56:12;22.50;99.90
17152;DHT22;8691;50.828;4.700;2023-09-19T13:58:39;22.50;99.90
17152;DHT22;8691;50.828;4.700;2023-09-19T14:01:05;22.50;99.90
17152;DHT22;8691;50.828;4.700;2023-09-19T14:03:33;22.50;99.90
17152;DHT22;8691;50.828;4.700;2023-09-19T14:06:00;22.50;99.90
17152;DHT22;8691;50.828;4.700;2023-09-19T14:08:27;22.40;99.90
17152;DHT22;8691;50.828;4.700;2023-09-19T14:10:53;22.10;99.90
17152;DHT22;8691;50.828;4.700;2023-09-19T14:13:20;22.00;99.90
17152;DHT22;8691;50.828;4.700;2023-09-19T14:15:47;22.00;99.90
17152;DHT22;8691;50.828;4.700;2023-09-19T14:18:14;22.10;99.90
17152;DHT22;8691;50.828;4.700;2023-09-19T14:20:41;22.20;99.90
17152;DHT22;8691;50.828;4.700;2023-09-19T14:23:08;22.00;99.90
17152;DHT22;8691;50.828;4.700;2023-09-19T14:25:35;22.00;99.90
17152;DHT22;8691;50.828;4.700;2023-09-19T14:28:02;21.80;99.90
17152;DHT22;8691;50.828;4.700;2023-09-19T14:30:29;21.70;99.90
17152;DHT22;8691;50.828;4.700;2023-09-19T14:32:56;21.60;99.90
17152;DHT22;8691;50.828;4.700;2023-09-19T14:35:23;21.60;99.90
17152;DHT22;8691;50.828;4.700;2023-09-19T14:37:49;21.50;99.90
17152;DHT22;8691;50.828;4.700;2023-09-19T14:40:16;21.40;99.90
17152;DHT22;8691;50.828;4.700;2023-09-19T14:42:44;21.60;99.90
17152;DHT22;8691;50.828;4.700;2023-09-19T14:45:11;21.60;99.90
17152;DHT22;8691;50.828;4.700;2023-09-19T14:47:38;21.80;99.90
17152;DHT22;8691;50.828;4.700;2023-09-19T14:50:05;22.00;99.90
17152;DHT22;8691;50.828;4.700;2023-09-19T14:52:32;22.00;99.90
17152;DHT22;8691;50.828;4.700;2023-09-19T14:54:59;22.10;99.90
17152;DHT22;8691;50.828;4.700;2023-09-19T14:57:25;21.90;99.90
17152;DHT22;8691;50.828;4.700;2023-09-19T14:59:52;21.70;99.90
17152;DHT22;8691;50.828;4.700;2023-09-19T15:02:19;21.30;99.90
17152;DHT22;8691;50.828;4.700;2023-09-19T15:04:46;21.10;99.90
17152;DHT22;8691;50.828;4.700;2023-09-19T15:07:13;21.00;99.90
17152;DHT22;8691;50.828;4.700;2023-09-19T15:09:40;21.10;99.90
17152;DHT22;8691;50.828;4.700;2023-09-19T15:12:06;21.20;99.90
17152;DHT22;8691;50.828;4.700;2023-09-19T15:14:33;21.10;99.90
17152;DHT22;8691;50.828;4.700;2023-09-19T15:17:00;21.10;99.90
17152;DHT22;8691;50.828;4.700;2023-09-19T15:19:26;21.20;99.90
17152;DHT22;8691;50.828;4.700;2023-09-19T15:21:53;21.30;99.90
17152;DHT22;8691;50.828;4.700;2023-09-19T17:18:27;19.70;99.90
17152;DHT22;8691;50.828;4.700;2023-09-19T17:20:54;19.70;99.90
17152;DHT22;8691;50.828;4.700;2023-09-19T17:23:20;19.60;99.90
17152;DHT22;8691;50.828;4.700;2023-09-19T17:25:47;19.60;99.90
17152;DHT22;8691;50.828;4.700;2023-09-19T17:28:14;19.50;99.90
17152;DHT22;8691;50.828;4.700;2023-09-19T17:30:41;19.50;99.90
17152;DHT22;8691;50.828;4.700;2023-09-19T17:33:07;19.40;99.90
17152;DHT22;8691;50.828;4.700;2023-09-19T17:35:34;19.50;99.90
17152;DHT22;8691;50.828;4.700;2023-09-19T17:38:01;19.30;99.90
17152;DHT22;8691;50.828;4.700;2023-09-19T17:40:28;19.30;99.90
17152;DHT22;8691;50.828;4.700;2023-09-19T17:42:55;19.20;99.90
17152;DHT22;8691;50.828;4.700;2023-09-19T17:45:21;19.20;99.90
17152;DHT22;8691;50.828;4.700;2023-09-19T17:47:48;19.20;99.90
17152;DHT22;8691;50.828;4.700;2023-09-19T17:50:15;19.20;99.90
17152;DHT22;8691;50.828;4.700;2023-09-19T17:52:42;19.10;99.90
17152;DHT22;8691;50.828;4.700;2023-09-19T17:55:11;19.10;99.90
17152;DHT22;8691;50.828;4.700;2023-09-19T17:57:38;19.00;99.90
17152;DHT22;8691;50.828;4.700;2023-09-19T18:00:04;19.00;99.90
17152;DHT22;8691;50.828;4.700;2023-09-19T18:02:31;19.00;99.90
17152;DHT22;8691;50.828;4.700;2023-09-19T18:04:58;19.00;99.90
17152;DHT22;8691;50.828;4.700;2023-09-19T18:07:24;18.90;99.90
17152;DHT22;8691;50.828;4.700;2023-09-19T18:09:51;18.90;99.90
17152;DHT22;8691;50.828;4.700;2023-09-19T18:12:17;18.90;99.90
17152;DHT22;8691;50.828;4.700;2023-09-19T18:14:44;18.80;99.90
17152;DHT22;8691;50.828;4.700;2023-09-19T18:17:11;18.80;99.90
17152;DHT22;8691;50.828;4.700;2023-09-19T18:19:38;18.70;99.90
17152;DHT22;8691;50.828;4.700;2023-09-19T18:22:05;18.70;99.90
17152;DHT22;8691;50.828;4.700;2023-09-19T18:24:32;18.70;99.90